createdAt,value
2023-02-24T00:02:06.238Z,4.60
2023-02-24T00:04:39.801Z,4.60
2023-02-24T00:07:08.368Z,4.60
2023-02-24T00:09:35.784Z,4.60
2023-02-24T00:12:05.606Z,4.60
2023-02-24T00:14:35.131Z,4.60
2023-02-24T00:17:02.614Z,4.60
2023-02-24T00:19:34.448Z,4.60
2023-02-24T00:22:03.027Z,4.70
2023-02-24T00:24:30.099Z,4.60
2023-02-24T00:26:59.734Z,4.70
2023-02-24T00:29:29.112Z,4.70
2023-02-24T00:32:00.387Z,4.70
2023-02-24T00:34:33.639Z,4.60
2023-02-24T00:37:01.487Z,4.70
2023-02-24T00:39:32.716Z,4.70
2023-02-24T00:42:06.481Z,4.70
2023-02-24T00:44:43.837Z,4.70
2023-02-24T00:47:12.304Z,4.70
2023-02-24T00:49:43.507Z,4.70
2023-02-24T00:52:21.127Z,4.70
2023-02-24T00:54:49.551Z,4.60
2023-02-24T00:57:23.497Z,4.60
2023-02-24T00:59:51.855Z,4.70
2023-02-24T01:02:20.149Z,4.70
2023-02-24T01:04:47.148Z,4.70
2023-02-24T01:07:14.341Z,4.70
2023-02-24T01:09:41.997Z,4.80
2023-02-24T01:12:29.844Z,4.80
2023-02-24T01:14:57.038Z,4.80
2023-02-24T01:17:25.551Z,4.80
2023-02-24T01:19:52.882Z,4.90
2023-02-24T01:22:21.256Z,4.90
2023-02-24T01:24:48.599Z,5.00
2023-02-24T01:27:19.116Z,4.90
2023-02-24T01:29:48.916Z,5.00
2023-02-24T01:32:19.485Z,5.00
2023-02-24T01:34:47.475Z,5.00
2023-02-24T01:37:17.383Z,5.00
2023-02-24T01:39:48.256Z,5.00
2023-02-24T01:42:21.438Z,5.10
2023-02-24T01:44:48.359Z,5.00
2023-02-24T01:47:18.332Z,5.00
2023-02-24T01:49:49.739Z,5.10
2023-02-24T01:52:24.458Z,5.10
2023-02-24T01:55:31.687Z,5.00
2023-02-24T01:58:01.444Z,5.00
2023-02-24T02:00:38.221Z,5.00
2023-02-24T02:03:13.118Z,5.10
2023-02-24T02:05:42.524Z,5.00
2023-02-24T02:08:10.500Z,5.00
2023-02-24T02:10:39.651Z,5.00
2023-02-24T02:13:06.757Z,5.10
2023-02-24T02:15:41.244Z,5.00
2023-02-24T02:18:16.503Z,5.00
2023-02-24T02:21:32.936Z,5.10
2023-02-24T02:24:22.259Z,5.10
2023-02-24T02:27:21.171Z,5.10
2023-02-24T02:30:14.284Z,5.10
2023-02-24T02:32:52.465Z,5.10
2023-02-24T02:35:38.498Z,5.10
2023-02-24T02:38:26.340Z,5.10
2023-02-24T02:41:14.674Z,5.10
2023-02-24T02:43:53.548Z,5.10
2023-02-24T02:46:37.590Z,5.10
2023-02-24T02:49:20.801Z,5.10
2023-02-24T02:51:56.947Z,5.10
2023-02-24T02:55:09.695Z,5.10
2023-02-24T02:57:40.320Z,5.10
2023-02-24T03:00:29.445Z,5.00
2023-02-24T03:03:07.367Z,5.10
2023-02-24T03:05:46.546Z,5.10
2023-02-24T03:08:19.125Z,5.00
2023-02-24T03:10:51.123Z,5.10
2023-02-24T03:13:24.311Z,5.10
2023-02-24T03:15:53.852Z,5.10
2023-02-24T03:18:32.732Z,5.10
2023-02-24T03:21:25.042Z,5.10
2023-02-24T03:23:53.930Z,5.10
2023-02-24T03:26:31.393Z,5.10
2023-02-24T03:29:04.377Z,5.10
2023-02-24T03:31:44.047Z,5.10
2023-02-24T03:34:21.296Z,5.10
2023-02-24T03:36:48.625Z,5.10
2023-02-24T03:39:16.086Z,5.00
2023-02-24T03:41:50.881Z,5.10
2023-02-24T03:44:17.845Z,5.00
2023-02-24T03:46:44.828Z,5.00
2023-02-24T03:49:14.253Z,5.00
2023-02-24T03:51:44.988Z,5.00
2023-02-24T03:54:14.890Z,5.00
2023-02-24T03:57:03.591Z,5.00
2023-02-24T04:00:22.664Z,5.10
2023-02-24T04:03:03.675Z,5.10
2023-02-24T04:05:33.557Z,5.10
2023-02-24T04:08:09.272Z,5.10
2023-02-24T04:11:00.689Z,5.20
2023-02-24T04:13:45.039Z,5.20
2023-02-24T04:16:28.151Z,5.20
2023-02-24T04:19:03.982Z,5.20
2023-02-24T04:21:32.446Z,5.30
2023-02-24T04:24:06.394Z,5.20
2023-02-24T04:26:36.668Z,5.30
2023-02-24T04:29:03.843Z,5.30
2023-02-24T04:31:33.527Z,5.20
2023-02-24T04:34:02.025Z,5.20
2023-02-24T04:36:28.940Z,5.20
2023-02-24T04:38:55.954Z,5.20
2023-02-24T04:41:23.588Z,5.20
2023-02-24T04:43:50.978Z,5.20
2023-02-24T04:46:20.867Z,5.20
2023-02-24T04:48:47.909Z,5.10
2023-02-24T04:51:14.813Z,5.00
2023-02-24T04:53:42.112Z,5.00
2023-02-24T04:56:09.277Z,5.00
2023-02-24T04:58:41.303Z,5.00
2023-02-24T05:01:10.799Z,5.00
2023-02-24T05:03:42.344Z,5.00
2023-02-24T05:06:16.139Z,5.00
2023-02-24T05:08:43.732Z,5.00
2023-02-24T05:11:19.104Z,5.00
2023-02-24T05:13:46.389Z,5.00
2023-02-24T05:16:16.068Z,4.90
2023-02-24T05:18:44.749Z,4.80
2023-02-24T05:21:38.506Z,4.70
2023-02-24T05:24:08.319Z,4.70
2023-02-24T05:26:37.535Z,4.60
2023-02-24T05:29:06.885Z,4.60
2023-02-24T05:31:34.433Z,4.50
2023-02-24T05:34:05.662Z,4.50
2023-02-24T05:36:41.593Z,4.50
2023-02-24T05:39:14.687Z,4.40
2023-02-24T05:41:42.821Z,4.40
2023-02-24T05:44:15.862Z,4.30
2023-02-24T05:46:45.541Z,4.30
2023-02-24T05:49:15.327Z,4.50
2023-02-24T05:51:54.787Z,4.50
2023-02-24T05:54:28.886Z,4.30
2023-02-24T05:57:00.391Z,4.30
2023-02-24T05:59:32.748Z,4.20
2023-02-24T06:02:07.286Z,4.20
2023-02-24T06:04:45.861Z,4.20
2023-02-24T06:07:14.351Z,4.10
2023-02-24T06:09:43.062Z,4.10
2023-02-24T06:12:10.522Z,4.00
2023-02-24T06:14:37.689Z,4.00
2023-02-24T06:17:04.633Z,4.00
2023-02-24T06:19:34.310Z,3.90
2023-02-24T06:22:02.209Z,3.90
2023-02-24T06:24:31.415Z,3.80
2023-02-24T06:27:09.836Z,3.70
2023-02-24T06:29:38.439Z,3.60
2023-02-24T06:32:08.876Z,3.60
2023-02-24T06:34:40.114Z,3.60
2023-02-24T06:37:08.450Z,3.70
2023-02-24T06:39:36.730Z,3.80
2023-02-24T06:42:05.288Z,3.70
2023-02-24T06:44:32.917Z,3.70
2023-02-24T06:47:00.164Z,3.60
2023-02-24T06:49:27.472Z,3.60
2023-02-24T06:51:55.188Z,3.50
2023-02-24T06:54:22.724Z,3.50
2023-02-24T06:56:52.698Z,3.40
2023-02-24T06:59:22.269Z,3.30
2023-02-24T07:01:49.845Z,3.20
2023-02-24T07:04:18.109Z,3.10
2023-02-24T07:06:52.571Z,3.00
2023-02-24T07:09:23.511Z,2.90
2023-02-24T07:11:52.427Z,2.80
2023-02-24T07:14:22.300Z,2.80
2023-02-24T07:16:54.525Z,2.80
2023-02-24T07:19:32.522Z,2.80
2023-02-24T07:22:03.194Z,2.90
2023-02-24T07:24:33.564Z,2.90
2023-02-24T07:27:08.731Z,2.90
2023-02-24T07:29:37.864Z,3.00
2023-02-24T07:32:08.901Z,2.80
2023-02-24T07:34:40.391Z,2.90
2023-02-24T07:37:08.752Z,3.00
2023-02-24T07:39:37.616Z,3.00
2023-02-24T07:42:05.897Z,3.00
2023-02-24T07:44:33.288Z,3.00
2023-02-24T07:50:48.465Z,3.10
2023-02-24T07:53:16.732Z,3.00
2023-02-24T07:55:43.681Z,2.90
2023-02-24T08:02:24.051Z,3.00
2023-02-24T08:04:51.729Z,2.90
2023-02-24T08:07:25.175Z,2.80
2023-02-24T08:10:14.120Z,2.80
2023-02-24T08:12:43.086Z,2.70
2023-02-24T08:15:17.581Z,2.70
2023-02-24T08:17:47.482Z,2.70
2023-02-24T08:20:14.753Z,2.70
2023-02-24T08:22:44.479Z,2.70
2023-02-24T08:25:18.723Z,2.70
2023-02-24T08:28:07.437Z,2.80
2023-02-24T08:30:40.580Z,2.90
2023-02-24T08:33:11.099Z,2.90
2023-02-24T08:35:44.716Z,2.80
2023-02-24T08:38:18.366Z,3.00
2023-02-24T08:40:51.676Z,3.10
2023-02-24T08:43:30.205Z,2.80
2023-02-24T08:46:01.105Z,3.00
2023-02-24T08:48:38.361Z,3.20
2023-02-24T08:51:07.553Z,3.20
2023-02-24T08:53:35.240Z,3.10
2023-02-24T08:56:09.826Z,3.00
2023-02-24T08:58:41.133Z,3.30
2023-02-24T09:01:19.435Z,3.20
2023-02-24T09:03:48.426Z,3.30
2023-02-24T09:06:25.492Z,3.50
2023-02-24T09:09:15.330Z,3.60
2023-02-24T09:11:44.308Z,3.70
2023-02-24T09:14:25.976Z,3.90
2023-02-24T09:17:03.683Z,4.20
2023-02-24T09:19:48.548Z,4.30
2023-02-24T09:22:37.643Z,4.30
2023-02-24T09:25:25.913Z,4.50
2023-02-24T09:27:55.440Z,4.50
2023-02-24T09:30:37.503Z,4.40
2023-02-24T09:33:41.828Z,4.50
2023-02-24T09:36:13.421Z,4.60
2023-02-24T09:39:00.036Z,4.70
2023-02-24T09:41:33.323Z,4.70
2023-02-24T09:44:18.507Z,5.00
2023-02-24T09:46:55.078Z,4.60
2023-02-24T09:49:40.216Z,4.80
2023-02-24T09:52:17.518Z,4.50
2023-02-24T09:55:11.099Z,4.50
2023-02-24T09:58:17.160Z,4.70
2023-02-24T10:01:22.923Z,4.50
2023-02-24T10:03:51.798Z,4.40
2023-02-24T10:06:26.978Z,4.40
2023-02-24T10:09:11.834Z,4.40
2023-02-24T10:11:53.612Z,4.90
2023-02-24T10:15:00.105Z,5.10
2023-02-24T10:17:40.397Z,5.10
2023-02-24T10:20:31.102Z,4.70
2023-02-24T10:23:33.114Z,4.70
2023-02-24T10:26:09.646Z,5.10
2023-02-24T10:28:59.998Z,5.00
2023-02-24T10:31:36.906Z,5.00
2023-02-24T10:34:21.530Z,5.00
2023-02-24T10:36:50.570Z,4.70
2023-02-24T10:39:26.793Z,4.70
2023-02-24T10:41:57.907Z,4.80
2023-02-24T10:44:36.488Z,5.00
2023-02-24T10:47:13.839Z,4.90
2023-02-24T10:49:57.847Z,5.00
2023-02-24T10:52:37.519Z,5.20
2023-02-24T10:55:28.856Z,5.40
2023-02-24T10:58:06.596Z,5.50
2023-02-24T11:01:07.340Z,5.60
2023-02-24T11:03:43.550Z,5.40
2023-02-24T11:06:42.380Z,4.80
2023-02-24T11:09:28.953Z,4.60
2023-02-24T11:12:16.782Z,5.10
2023-02-24T11:15:34.641Z,5.00
2023-02-24T11:18:02.801Z,5.40
2023-02-24T11:20:48.952Z,5.60
2023-02-24T11:23:29.545Z,5.60
2023-02-24T11:26:11.946Z,5.70
2023-02-24T11:28:49.869Z,5.80
2023-02-24T11:31:31.231Z,5.80
2023-02-24T11:33:58.235Z,5.60
2023-02-24T11:36:37.233Z,5.70
2023-02-24T11:39:21.279Z,4.80
2023-02-24T11:41:53.981Z,4.60
2023-02-24T11:44:29.896Z,4.70
2023-02-24T11:47:02.818Z,5.20
2023-02-24T11:50:00.790Z,5.30
2023-02-24T11:52:38.694Z,5.40
2023-02-24T11:55:28.037Z,5.50
2023-02-24T11:57:59.392Z,5.50
2023-02-24T12:00:31.011Z,5.20
2023-02-24T12:03:04.362Z,5.30
2023-02-24T12:05:37.195Z,5.30
2023-02-24T12:08:10.643Z,5.20
2023-02-24T12:10:50.606Z,5.20
2023-02-24T12:14:06.988Z,5.50
2023-02-24T12:16:42.147Z,5.60
2023-02-24T12:19:59.409Z,5.40
2023-02-24T12:23:10.797Z,5.50
2023-02-24T12:26:06.925Z,5.50
2023-02-24T12:28:58.452Z,5.40
2023-02-24T12:31:32.274Z,5.40
2023-02-24T12:34:12.532Z,5.50
2023-02-24T12:36:55.607Z,5.50
2023-02-24T12:39:44.116Z,5.50
2023-02-24T12:42:48.096Z,5.60
2023-02-24T12:45:34.024Z,5.80
2023-02-24T12:48:24.893Z,5.80
2023-02-24T12:51:02.143Z,5.70
2023-02-24T12:53:34.913Z,5.60
2023-02-24T12:56:24.816Z,5.50
2023-02-24T12:59:00.041Z,5.50
2023-02-24T13:01:45.960Z,5.50
2023-02-24T13:04:25.008Z,5.70
2023-02-24T13:07:15.061Z,5.50
2023-02-24T13:10:01.546Z,5.60
2023-02-24T13:12:38.412Z,5.40
2023-02-24T13:15:07.029Z,5.50
2023-02-24T13:17:33.996Z,5.60
2023-02-24T13:20:11.722Z,5.50
2023-02-24T13:22:42.823Z,5.30
2023-02-24T13:25:21.717Z,5.00
2023-02-24T13:28:00.846Z,4.90
2023-02-24T13:30:57.687Z,5.10
2023-02-24T13:33:30.049Z,5.30
2023-02-24T13:36:21.721Z,5.20
2023-02-24T13:38:58.086Z,5.10
2023-02-24T13:41:37.528Z,5.30
2023-02-24T13:44:27.113Z,5.30
2023-02-24T13:47:12.084Z,5.30
2023-02-24T13:50:16.419Z,5.30
2023-02-24T13:52:43.316Z,5.20
2023-02-24T13:55:15.965Z,4.90
2023-02-24T13:57:55.065Z,5.10
2023-02-24T14:00:47.840Z,5.20
2023-02-24T14:03:24.668Z,5.30
2023-02-24T14:05:51.933Z,5.20
2023-02-24T14:08:40.887Z,4.90
2023-02-24T14:11:12.136Z,4.90
2023-02-24T14:13:40.037Z,5.00
2023-02-24T14:16:11.874Z,4.90
2023-02-24T14:18:40.005Z,5.00
2023-02-24T14:21:07.012Z,4.90
2023-02-24T14:23:35.162Z,5.00
2023-02-24T14:26:08.245Z,5.00
2023-02-24T14:28:37.698Z,5.00
2023-02-24T14:31:16.149Z,5.00
2023-02-24T14:33:45.344Z,5.10
2023-02-24T14:36:19.014Z,5.00
2023-02-24T14:38:46.385Z,5.00
2023-02-24T14:41:24.768Z,5.00
2023-02-24T14:43:52.783Z,4.90
2023-02-24T14:46:20.844Z,4.90
2023-02-24T14:48:54.060Z,4.70
2023-02-24T14:51:31.986Z,4.70
2023-02-24T14:54:03.594Z,4.60
2023-02-24T14:56:35.641Z,4.70
2023-02-24T14:59:16.160Z,4.70
2023-02-24T15:05:24.329Z,4.50
2023-02-24T15:07:51.939Z,4.30
2023-02-24T15:10:30.973Z,4.40
2023-02-24T15:13:16.219Z,4.50
2023-02-24T15:15:43.428Z,4.50
2023-02-24T15:18:25.840Z,4.30
2023-02-24T15:21:04.693Z,4.40
2023-02-24T15:23:38.782Z,4.40
2023-02-24T15:26:08.897Z,4.30
2023-02-24T15:28:37.633Z,4.20
2023-02-24T15:31:11.496Z,4.20
2023-02-24T15:33:44.789Z,4.50
2023-02-24T15:36:19.326Z,4.80
2023-02-24T15:38:51.196Z,4.70
2023-02-24T15:41:18.224Z,5.10
2023-02-24T15:43:47.508Z,5.00
2023-02-24T15:46:21.133Z,4.70
2023-02-24T15:48:53.632Z,5.00
2023-02-24T15:51:36.975Z,4.80
2023-02-24T15:54:15.110Z,4.60
2023-02-24T15:56:43.000Z,4.70
2023-02-24T15:59:22.121Z,4.50
2023-02-24T16:01:49.246Z,4.60
2023-02-24T16:04:16.301Z,4.70
2023-02-24T16:06:54.109Z,4.30
2023-02-24T16:09:33.961Z,4.40
2023-02-24T16:12:03.395Z,4.10
2023-02-24T16:14:30.597Z,4.00
2023-02-24T16:16:58.254Z,3.80
2023-02-24T16:19:25.220Z,3.70
2023-02-24T16:21:52.171Z,3.60
2023-02-24T16:24:21.448Z,3.60
2023-02-24T16:26:48.807Z,3.50
2023-02-24T16:29:16.162Z,3.50
2023-02-24T16:31:43.501Z,3.40
2023-02-24T16:34:14.973Z,3.40
2023-02-24T16:36:43.218Z,3.30
2023-02-24T16:39:12.683Z,3.30
2023-02-24T16:41:39.751Z,3.30
2023-02-24T16:44:06.966Z,3.30
2023-02-24T16:46:38.138Z,3.20
2023-02-24T16:49:10.179Z,3.10
2023-02-24T16:51:39.164Z,3.00
2023-02-24T16:54:06.314Z,3.00
2023-02-24T16:56:33.334Z,3.00
2023-02-24T16:59:00.462Z,2.90
2023-02-24T17:01:27.491Z,2.90
2023-02-24T17:03:54.735Z,2.90
2023-02-24T17:06:23.894Z,2.80
2023-02-24T17:08:51.525Z,2.70
2023-02-24T17:11:20.472Z,2.70
2023-02-24T17:13:47.625Z,2.70
2023-02-24T17:16:14.638Z,2.70
2023-02-24T17:18:41.927Z,2.70
2023-02-24T17:21:13.499Z,2.60
2023-02-24T17:23:40.664Z,2.60
2023-02-24T17:26:08.455Z,2.70
2023-02-24T17:28:35.548Z,2.70
2023-02-24T17:31:02.634Z,2.70
2023-02-24T17:33:29.743Z,2.70
2023-02-24T17:35:56.718Z,2.80
2023-02-24T17:38:24.307Z,2.80
2023-02-24T17:40:51.322Z,2.80
2023-02-24T17:43:19.154Z,2.90
2023-02-24T17:45:47.212Z,2.90
2023-02-24T17:48:15.954Z,2.90
2023-02-24T17:50:44.425Z,2.90
2023-02-24T17:53:11.551Z,2.90
2023-02-24T17:55:39.510Z,2.90
2023-02-24T17:58:08.409Z,2.90
2023-02-24T18:00:35.414Z,2.90
2023-02-24T18:03:03.635Z,2.90
2023-02-24T18:05:30.681Z,2.90
2023-02-24T18:07:58.889Z,3.00
2023-02-24T18:10:27.375Z,3.00
2023-02-24T18:12:54.607Z,2.90
2023-02-24T18:15:21.719Z,3.00
2023-02-24T18:17:48.644Z,2.90
2023-02-24T18:20:15.668Z,3.00
2023-02-24T18:22:42.814Z,3.00
2023-02-24T18:25:09.901Z,2.90
2023-02-24T18:27:37.029Z,2.90
2023-02-24T18:30:04.467Z,2.80
2023-02-24T18:32:31.594Z,2.80
2023-02-24T18:34:58.697Z,2.80
2023-02-24T18:37:25.695Z,2.80
2023-02-24T18:39:53.396Z,2.70
2023-02-24T18:42:20.402Z,2.70
2023-02-24T18:44:47.448Z,2.80
2023-02-24T18:47:14.417Z,2.80
2023-02-24T18:49:41.405Z,2.80
2023-02-24T18:52:08.440Z,2.80
2023-02-24T18:54:35.462Z,2.70
2023-02-24T18:57:02.751Z,2.70
2023-02-24T18:59:29.797Z,2.70
2023-02-24T19:01:57.343Z,2.70
2023-02-24T19:04:24.771Z,2.70
2023-02-24T19:06:51.951Z,2.70
2023-02-24T19:13:07.788Z,2.60
2023-02-24T19:15:41.026Z,2.50
2023-02-24T19:18:07.991Z,2.50
2023-02-24T19:20:34.998Z,2.40
2023-02-24T19:23:02.158Z,2.30
2023-02-24T19:25:29.144Z,2.40
2023-02-24T19:27:56.097Z,2.30
2023-02-24T19:30:23.101Z,2.40
2023-02-24T19:32:50.248Z,2.40
2023-02-24T19:35:17.501Z,2.40
2023-02-24T19:37:47.345Z,2.40
2023-02-24T19:40:14.930Z,2.40
2023-02-24T19:42:42.848Z,2.40
2023-02-24T19:45:10.215Z,2.40
2023-02-24T19:47:37.218Z,2.50
2023-02-24T19:50:04.305Z,2.40
2023-02-24T19:52:31.257Z,2.50
2023-02-24T19:54:58.290Z,2.50
2023-02-24T19:57:25.175Z,2.50
2023-02-24T19:59:52.195Z,2.50
2023-02-24T20:02:19.392Z,2.50
2023-02-24T20:04:46.670Z,2.40
2023-02-24T20:11:02.420Z,2.40
2023-02-24T20:13:29.723Z,2.40
2023-02-24T20:16:07.203Z,2.40
2023-02-24T20:18:34.400Z,2.40
2023-02-24T20:21:01.945Z,2.40
2023-02-24T20:23:29.027Z,2.40
2023-02-24T20:25:57.159Z,2.40
2023-02-24T20:28:24.823Z,2.40
2023-02-24T20:30:51.899Z,2.40
2023-02-24T20:33:19.681Z,2.40
2023-02-24T20:35:46.710Z,2.40
2023-02-24T20:38:14.338Z,2.50
2023-02-24T20:40:41.320Z,2.50
2023-02-24T20:43:10.584Z,2.50
2023-02-24T20:45:38.963Z,2.50
2023-02-24T20:48:06.785Z,2.50
2023-02-24T20:50:34.556Z,2.50
2023-02-24T20:53:03.501Z,2.60
2023-02-24T20:55:31.066Z,2.60
2023-02-24T20:57:58.372Z,2.60
2023-02-24T21:00:25.978Z,2.50
2023-02-24T21:02:53.052Z,2.60
2023-02-24T21:05:22.516Z,2.50
2023-02-24T21:07:50.532Z,2.50
2023-02-24T21:10:18.456Z,2.50
2023-02-24T21:12:45.967Z,2.50
2023-02-24T21:15:12.975Z,2.60
2023-02-24T21:17:40.293Z,2.60
2023-02-24T21:20:11.226Z,2.60
2023-02-24T21:22:39.647Z,2.60
2023-02-24T21:25:08.178Z,2.70
2023-02-24T21:27:35.103Z,2.70
2023-02-24T21:30:02.276Z,2.70
2023-02-24T21:32:29.331Z,2.70
2023-02-24T21:34:56.562Z,2.70
2023-02-24T21:37:23.467Z,2.70
2023-02-24T21:39:50.451Z,2.70
2023-02-24T21:42:17.618Z,2.70
2023-02-24T21:44:44.797Z,2.70
2023-02-24T21:47:11.886Z,2.70
2023-02-24T21:49:38.962Z,2.70
2023-02-24T21:52:05.914Z,2.70
2023-02-24T21:54:33.023Z,2.70
2023-02-24T21:57:00.317Z,2.70
2023-02-24T21:59:27.904Z,2.70
2023-02-24T22:05:50.109Z,2.70
2023-02-24T22:08:17.143Z,2.80
2023-02-24T22:10:44.141Z,2.80
2023-02-24T22:13:11.226Z,2.70
2023-02-24T22:15:41.323Z,2.70
2023-02-24T22:18:08.258Z,2.80
2023-02-24T22:20:35.286Z,2.70
2023-02-24T22:26:44.191Z,2.70
2023-02-24T22:29:11.505Z,2.60
2023-02-24T22:31:39.260Z,2.60
2023-02-24T22:34:06.779Z,2.60
2023-02-24T22:36:36.807Z,2.60
2023-02-24T22:39:05.045Z,2.60
2023-02-24T22:41:34.581Z,2.60
2023-02-24T22:44:03.980Z,2.50
2023-02-24T22:46:33.761Z,2.50
2023-02-24T22:49:01.128Z,2.50
2023-02-24T22:51:28.881Z,2.50
2023-02-24T22:53:56.486Z,2.50
2023-02-24T22:56:26.420Z,2.50
2023-02-24T22:58:53.545Z,2.50
2023-02-24T23:01:23.614Z,2.50
2023-02-24T23:03:50.883Z,2.50
2023-02-24T23:06:21.178Z,2.60
2023-02-24T23:08:50.066Z,2.50
2023-02-24T23:11:21.130Z,2.50
2023-02-24T23:13:50.135Z,2.50
2023-02-24T23:16:23.890Z,2.60
2023-02-24T23:18:53.165Z,2.60
2023-02-24T23:21:22.955Z,2.60
2023-02-24T23:23:53.560Z,2.60
2023-02-24T23:26:21.039Z,2.60
2023-02-24T23:28:48.226Z,2.60
2023-02-24T23:31:22.330Z,2.70
2023-02-24T23:33:50.515Z,2.70
2023-02-24T23:36:18.514Z,2.70
2023-02-24T23:38:46.030Z,2.60
2023-02-24T23:41:13.806Z,2.60
2023-02-24T23:43:41.215Z,2.60
2023-02-24T23:46:12.077Z,2.60
2023-02-24T23:48:39.967Z,2.60
2023-02-24T23:51:10.474Z,2.60
2023-02-24T23:53:39.197Z,2.50
2023-02-24T23:56:11.509Z,2.50
2023-02-24T23:58:38.554Z,2.60
